Archival Weather

Chicago O'Hare International

Chicago, Illinois (KORD)

Report from: Saturday, March 18, 2023 2:51 PM CDT
Current time: Saturday, March 2, 2024 3:24 AM CST

Current weather – Weather history – Daily summaries
Weather forecast

Present weatherLight snow
Temperature-5.0°C (23.0°F)
Wind chill-13.6°C (7.6°F)
Dew point-12.8°C (9.0°F)
Winds 19 kts (9.8 m/s, 21.9 mph) West (270°)
Wind gusts 28 kts (14.4 m/s, 32.2 mph)
Peak wind 32 kts (16.5 m/s, 36.8 mph) West (280°) at 19:33
Visibility9 mi. (14.5 km)
Clouds Scattered clouds 3,000 ft. (914 m)
Ceiling: Broken clouds 3,700 ft. (1,128 m)
Broken clouds 6,000 ft. (1,829 m)
Altimeter30.03 in.Hg (1017 mB)
PrecipitiationTrace
Relative humidity54 %
Density altitude-2,594 ft. (-791 m)
Sea-level pressure101.8 kPa (1018 mB, 30.06 in.Hg)
Remarks System requires maintenance
Automated weather observing station with precipitation discriminator
Flight conditions Visual Meteorological Conditions
Raw dataKORD 181951Z 27019G28KT 9SM -SN SCT030 BKN037 BKN060 M05/M13 A3003 RMK AO2 PK WND 28032/1933 SLP180 P0000 T10501128 $
An error has occurred. This application may no longer respond until reloaded. Reload 🗙